Hauptseite
METAR-TAF:

METAR-TAF

Flughäfen :

Flughafen Logroño

Logroño, Spanien

Breite: 42-27N, Länge: 002-20W, Höhe: 353 m

Beobachtung

Neuester Wetterbericht von vor 21 Minuten, um 15:00 UTC
Wind 2 kt aus unterschiedlichen Richtungen
Temperatur 30°C
Luftfeuchtigkeit 33%
Luftdruck 1018 hPa
Sichtweite 10 km oder mehr
keine Wolken unter 1500 m und keine Kumulonimbus oder Gewitterwolken

METAR: LELO 111500Z AUTO VRB02KT CAVOK 30/12 Q1018

Zeit: 17:21 (15:21 UTC)

Prognose

Neuester Wetterbericht von vor 1 Stunde und 21 Minuten, um 14:00 UTC
Gültige Prognose vom 11 um 15 UTC bis 11 um 24 UTC
Wind 5 kt aus unterschiedlichen Richtungen
Sichtweite 10 km oder mehr
keine Wolken unter 1500 m und keine Kumulonimbus oder Gewitterwolken
Übergehend zu
vom 11 um 16 UTC bis 11 um 18 UTC
Wind 10 kt aus Nord/Nordost

TAF: LELO 111400Z 1115/1124 VRB05KT CAVOK BECMG 1116/1118 02010KT

Wetterbeobachtungen und Prognosen von mehr als 4000 Flughäfen (METAR und TAF Bericht).

Die verfügbaren Stationen werden durch gelbe und rote Markierungen auf der Karte dargestellt.

Führen Sie die Maus auf sie, um den Namen der Station zu sehen.

Darauf klicken, um die Beobachtung von Wetterbeobachtungen und Prognosen zu sehen.

Um die Karte zu ändern : klicken Sie auf den grünen Tasten mit einem schwarzen Kreuz Zum Vergrößern, auf den grünen Button mit einem Gedankenstrich zu verkleinern, oder auf die grünen Pfeile für benachbarte Karten.


METAR-TAF: